sensor_id;sensor_type;location;lat;lon;timestamp;temperature;humidity
4647;DHT22;2336;47.822;7.564;2022-08-14T00:00:59;19.10;81.80
4647;DHT22;2336;47.822;7.564;2022-08-14T00:03:28;19.00;83.30
4647;DHT22;2336;47.822;7.564;2022-08-14T00:05:57;18.90;83.50
4647;DHT22;2336;47.822;7.564;2022-08-14T00:08:25;18.80;82.70
4647;DHT22;2336;47.822;7.564;2022-08-14T00:10:52;18.90;83.00
4647;DHT22;2336;47.822;7.564;2022-08-14T00:13:21;18.80;83.50
4647;DHT22;2336;47.822;7.564;2022-08-14T00:15:50;18.70;83.40
4647;DHT22;2336;47.822;7.564;2022-08-14T00:18:19;18.70;82.30
4647;DHT22;2336;47.822;7.564;2022-08-14T00:20:47;18.70;82.00
4647;DHT22;2336;47.822;7.564;2022-08-14T00:23:16;18.80;82.20
4647;DHT22;2336;47.822;7.564;2022-08-14T00:25:44;18.70;82.60
4647;DHT22;2336;47.822;7.564;2022-08-14T00:28:12;18.70;82.30
4647;DHT22;2336;47.822;7.564;2022-08-14T00:30:39;18.60;82.80
4647;DHT22;2336;47.822;7.564;2022-08-14T00:33:08;18.70;84.00
4647;DHT22;2336;47.822;7.564;2022-08-14T00:35:35;18.60;83.20
4647;DHT22;2336;47.822;7.564;2022-08-14T00:38:01;18.50;82.20
4647;DHT22;2336;47.822;7.564;2022-08-14T00:40:28;18.50;82.30
4647;DHT22;2336;47.822;7.564;2022-08-14T00:42:55;18.50;82.30
4647;DHT22;2336;47.822;7.564;2022-08-14T00:45:22;18.40;83.10
4647;DHT22;2336;47.822;7.564;2022-08-14T00:47:49;18.40;81.70
4647;DHT22;2336;47.822;7.564;2022-08-14T00:50:19;18.30;81.50
4647;DHT22;2336;47.822;7.564;2022-08-14T00:52:48;18.30;81.50
4647;DHT22;2336;47.822;7.564;2022-08-14T00:55:18;18.20;82.10
4647;DHT22;2336;47.822;7.564;2022-08-14T00:57:46;18.20;82.40
4647;DHT22;2336;47.822;7.564;2022-08-14T01:00:33;18.30;82.60
4647;DHT22;2336;47.822;7.564;2022-08-14T01:03:01;18.30;82.70
4647;DHT22;2336;47.822;7.564;2022-08-14T01:05:30;18.30;83.30
4647;DHT22;2336;47.822;7.564;2022-08-14T01:07:59;18.20;84.50
4647;DHT22;2336;47.822;7.564;2022-08-14T01:10:28;18.10;85.20
4647;DHT22;2336;47.822;7.564;2022-08-14T01:13:10;18.00;84.80
4647;DHT22;2336;47.822;7.564;2022-08-14T01:15:38;17.80;84.70
4647;DHT22;2336;47.822;7.564;2022-08-14T01:18:05;17.70;84.90
4647;DHT22;2336;47.822;7.564;2022-08-14T01:24:13;17.60;85.70
4647;DHT22;2336;47.822;7.564;2022-08-14T01:26:40;17.60;86.20
4647;DHT22;2336;47.822;7.564;2022-08-14T01:29:08;17.50;85.70
4647;DHT22;2336;47.822;7.564;2022-08-14T01:31:37;17.40;86.50
4647;DHT22;2336;47.822;7.564;2022-08-14T01:34:05;17.30;86.40
4647;DHT22;2336;47.822;7.564;2022-08-14T01:36:32;17.20;86.60
4647;DHT22;2336;47.822;7.564;2022-08-14T01:39:04;17.30;86.20
4647;DHT22;2336;47.822;7.564;2022-08-14T01:41:34;17.30;86.60
4647;DHT22;2336;47.822;7.564;2022-08-14T01:44:06;17.30;86.70
4647;DHT22;2336;47.822;7.564;2022-08-14T01:46:38;17.40;86.00
4647;DHT22;2336;47.822;7.564;2022-08-14T01:49:07;17.50;86.60
4647;DHT22;2336;47.822;7.564;2022-08-14T01:51:35;17.50;85.80
4647;DHT22;2336;47.822;7.564;2022-08-14T01:54:08;17.60;85.80
4647;DHT22;2336;47.822;7.564;2022-08-14T01:56:38;17.60;85.90
4647;DHT22;2336;47.822;7.564;2022-08-14T01:59:06;17.60;86.40
4647;DHT22;2336;47.822;7.564;2022-08-14T02:01:33;17.50;87.60
4647;DHT22;2336;47.822;7.564;2022-08-14T02:04:02;17.40;87.80
4647;DHT22;2336;47.822;7.564;2022-08-14T02:06:29;17.30;88.00
4647;DHT22;2336;47.822;7.564;2022-08-14T02:08:56;17.30;89.20
4647;DHT22;2336;47.822;7.564;2022-08-14T02:11:25;17.20;90.00
4647;DHT22;2336;47.822;7.564;2022-08-14T02:13:56;17.10;89.90
4647;DHT22;2336;47.822;7.564;2022-08-14T02:16:26;17.00;90.00
4647;DHT22;2336;47.822;7.564;2022-08-14T02:18:55;16.90;90.50
4647;DHT22;2336;47.822;7.564;2022-08-14T02:21:23;16.80;90.50
4647;DHT22;2336;47.822;7.564;2022-08-14T02:23:51;16.90;90.40
4647;DHT22;2336;47.822;7.564;2022-08-14T02:26:21;16.90;90.60
4647;DHT22;2336;47.822;7.564;2022-08-14T02:28:50;16.90;90.60
4647;DHT22;2336;47.822;7.564;2022-08-14T02:31:19;16.90;90.70
4647;DHT22;2336;47.822;7.564;2022-08-14T02:33:46;16.80;91.10
4647;DHT22;2336;47.822;7.564;2022-08-14T02:36:14;16.80;91.10
4647;DHT22;2336;47.822;7.564;2022-08-14T02:38:41;16.80;91.30
4647;DHT22;2336;47.822;7.564;2022-08-14T02:41:10;16.80;91.50
4647;DHT22;2336;47.822;7.564;2022-08-14T02:43:37;16.80;91.70
4647;DHT22;2336;47.822;7.564;2022-08-14T02:46:06;17.00;91.00
4647;DHT22;2336;47.822;7.564;2022-08-14T02:48:37;17.10;91.20
4647;DHT22;2336;47.822;7.564;2022-08-14T02:51:06;17.10;90.90
4647;DHT22;2336;47.822;7.564;2022-08-14T02:53:36;17.10;91.10
4647;DHT22;2336;47.822;7.564;2022-08-14T02:56:04;17.00;91.50
4647;DHT22;2336;47.822;7.564;2022-08-14T02:58:32;17.00;91.50
4647;DHT22;2336;47.822;7.564;2022-08-14T03:01:02;17.00;91.60
4647;DHT22;2336;47.822;7.564;2022-08-14T03:03:28;16.90;91.70
4647;DHT22;2336;47.822;7.564;2022-08-14T03:05:57;16.80;91.80
4647;DHT22;2336;47.822;7.564;2022-08-14T03:08:24;16.70;92.30
4647;DHT22;2336;47.822;7.564;2022-08-14T03:10:58;16.60;92.60
4647;DHT22;2336;47.822;7.564;2022-08-14T03:13:25;16.60;93.00
4647;DHT22;2336;47.822;7.564;2022-08-14T03:15:53;16.60;93.30
4647;DHT22;2336;47.822;7.564;2022-08-14T03:18:20;16.60;94.00
4647;DHT22;2336;47.822;7.564;2022-08-14T03:20:48;16.70;94.30
4647;DHT22;2336;47.822;7.564;2022-08-14T03:23:17;16.90;94.50
4647;DHT22;2336;47.822;7.564;2022-08-14T03:25:44;16.90;94.60
4647;DHT22;2336;47.822;7.564;2022-08-14T03:28:11;17.00;94.60
4647;DHT22;2336;47.822;7.564;2022-08-14T03:30:38;17.10;94.80
4647;DHT22;2336;47.822;7.564;2022-08-14T03:33:07;17.00;94.80
4647;DHT22;2336;47.822;7.564;2022-08-14T03:35:34;16.90;95.00
4647;DHT22;2336;47.822;7.564;2022-08-14T03:38:05;16.80;96.30
4647;DHT22;2336;47.822;7.564;2022-08-14T03:40:35;16.70;96.00
4647;DHT22;2336;47.822;7.564;2022-08-14T03:43:04;16.60;96.40
4647;DHT22;2336;47.822;7.564;2022-08-14T03:45:31;16.50;97.10
4647;DHT22;2336;47.822;7.564;2022-08-14T03:48:01;16.40;97.40
4647;DHT22;2336;47.822;7.564;2022-08-14T03:50:29;16.30;98.00
4647;DHT22;2336;47.822;7.564;2022-08-14T03:52:57;16.30;98.50
4647;DHT22;2336;47.822;7.564;2022-08-14T03:55:24;16.50;98.50
4647;DHT22;2336;47.822;7.564;2022-08-14T03:57:54;16.40;98.30
4647;DHT22;2336;47.822;7.564;2022-08-14T04:00:21;16.40;98.90
4647;DHT22;2336;47.822;7.564;2022-08-14T04:02:48;16.40;99.30
4647;DHT22;2336;47.822;7.564;2022-08-14T04:05:15;16.40;99.50
4647;DHT22;2336;47.822;7.564;2022-08-14T04:07:41;16.40;99.60
4647;DHT22;2336;47.822;7.564;2022-08-14T04:10:08;16.40;99.70
4647;DHT22;2336;47.822;7.564;2022-08-14T04:12:35;16.40;99.90
4647;DHT22;2336;47.822;7.564;2022-08-14T04:15:05;16.30;99.90
4647;DHT22;2336;47.822;7.564;2022-08-14T04:17:32;16.30;99.90
4647;DHT22;2336;47.822;7.564;2022-08-14T04:19:59;16.30;99.90
4647;DHT22;2336;47.822;7.564;2022-08-14T04:22:28;16.30;99.90
4647;DHT22;2336;47.822;7.564;2022-08-14T04:24:55;16.30;99.90
4647;DHT22;2336;47.822;7.564;2022-08-14T04:27:22;16.30;99.90
4647;DHT22;2336;47.822;7.564;2022-08-14T04:29:49;16.20;99.90
4647;DHT22;2336;47.822;7.564;2022-08-14T04:32:17;16.20;99.90
4647;DHT22;2336;47.822;7.564;2022-08-14T04:34:44;16.20;99.90
4647;DHT22;2336;47.822;7.564;2022-08-14T04:37:11;16.20;99.90
4647;DHT22;2336;47.822;7.564;2022-08-14T04:39:55;16.20;99.90
4647;DHT22;2336;47.822;7.564;2022-08-14T04:42:40;16.20;99.90
4647;DHT22;2336;47.822;7.564;2022-08-14T04:45:25;16.20;99.90
4647;DHT22;2336;47.822;7.564;2022-08-14T04:48:04;16.30;99.90
4647;DHT22;2336;47.822;7.564;2022-08-14T04:50:42;16.30;99.90
4647;DHT22;2336;47.822;7.564;2022-08-14T04:53:10;16.30;99.90
4647;DHT22;2336;47.822;7.564;2022-08-14T04:55:37;16.20;99.90
4647;DHT22;2336;47.822;7.564;2022-08-14T04:58:04;16.20;99.90
4647;DHT22;2336;47.822;7.564;2022-08-14T05:00:32;16.20;99.90
4647;DHT22;2336;47.822;7.564;2022-08-14T05:02:59;16.30;99.90
4647;DHT22;2336;47.822;7.564;2022-08-14T05:05:29;16.20;99.90
4647;DHT22;2336;47.822;7.564;2022-08-14T05:08:03;16.20;99.90
4647;DHT22;2336;47.822;7.564;2022-08-14T05:10:36;16.20;99.90
4647;DHT22;2336;47.822;7.564;2022-08-14T05:13:03;16.20;99.90
4647;DHT22;2336;47.822;7.564;2022-08-14T05:15:31;16.10;99.90
4647;DHT22;2336;47.822;7.564;2022-08-14T05:18:02;16.10;99.90
4647;DHT22;2336;47.822;7.564;2022-08-14T05:20:30;16.10;99.90
4647;DHT22;2336;47.822;7.564;2022-08-14T05:22:57;16.10;99.90
4647;DHT22;2336;47.822;7.564;2022-08-14T05:25:24;16.10;99.90
4647;DHT22;2336;47.822;7.564;2022-08-14T05:27:51;16.10;99.90
4647;DHT22;2336;47.822;7.564;2022-08-14T05:30:18;16.20;99.90
4647;DHT22;2336;47.822;7.564;2022-08-14T05:32:45;16.30;99.90
4647;DHT22;2336;47.822;7.564;2022-08-14T05:35:12;16.30;99.90
4647;DHT22;2336;47.822;7.564;2022-08-14T05:37:40;16.40;99.90
4647;DHT22;2336;47.822;7.564;2022-08-14T05:40:08;16.40;99.90
4647;DHT22;2336;47.822;7.564;2022-08-14T05:42:36;16.40;99.90
4647;DHT22;2336;47.822;7.564;2022-08-14T05:45:04;16.50;99.90
4647;DHT22;2336;47.822;7.564;2022-08-14T05:47:32;16.60;99.90
4647;DHT22;2336;47.822;7.564;2022-08-14T05:50:05;16.60;99.90
4647;DHT22;2336;47.822;7.564;2022-08-14T05:52:32;16.60;99.90
4647;DHT22;2336;47.822;7.564;2022-08-14T05:55:00;16.70;99.90
4647;DHT22;2336;47.822;7.564;2022-08-14T05:57:28;16.70;99.90
4647;DHT22;2336;47.822;7.564;2022-08-14T05:59:55;16.80;99.90
4647;DHT22;2336;47.822;7.564;2022-08-14T06:02:22;16.80;99.90
4647;DHT22;2336;47.822;7.564;2022-08-14T06:04:48;17.00;99.90
4647;DHT22;2336;47.822;7.564;2022-08-14T06:07:15;17.00;99.90
4647;DHT22;2336;47.822;7.564;2022-08-14T06:09:42;17.10;99.90
4647;DHT22;2336;47.822;7.564;2022-08-14T06:12:10;17.20;99.90
4647;DHT22;2336;47.822;7.564;2022-08-14T06:14:37;17.30;99.90
4647;DHT22;2336;47.822;7.564;2022-08-14T06:17:04;17.40;99.90
4647;DHT22;2336;47.822;7.564;2022-08-14T06:19:31;17.50;99.60
4647;DHT22;2336;47.822;7.564;2022-08-14T06:21:58;17.60;99.30
4647;DHT22;2336;47.822;7.564;2022-08-14T06:24:24;17.70;99.00
4647;DHT22;2336;47.822;7.564;2022-08-14T06:26:51;17.80;98.90
4647;DHT22;2336;47.822;7.564;2022-08-14T06:29:19;17.90;98.60
4647;DHT22;2336;47.822;7.564;2022-08-14T06:31:46;18.00;97.60
4647;DHT22;2336;47.822;7.564;2022-08-14T06:34:13;18.20;95.80
4647;DHT22;2336;47.822;7.564;2022-08-14T06:36:40;18.50;94.60
4647;DHT22;2336;47.822;7.564;2022-08-14T06:39:06;18.70;93.80
4647;DHT22;2336;47.822;7.564;2022-08-14T06:41:33;18.90;93.20
4647;DHT22;2336;47.822;7.564;2022-08-14T06:44:00;19.10;92.60
4647;DHT22;2336;47.822;7.564;2022-08-14T06:46:29;19.20;91.70
4647;DHT22;2336;47.822;7.564;2022-08-14T06:48:55;19.30;91.40
4647;DHT22;2336;47.822;7.564;2022-08-14T06:51:22;19.50;90.90
4647;DHT22;2336;47.822;7.564;2022-08-14T06:53:49;19.50;91.00
4647;DHT22;2336;47.822;7.564;2022-08-14T06:56:16;19.70;91.00
4647;DHT22;2336;47.822;7.564;2022-08-14T06:58:43;19.70;90.60
4647;DHT22;2336;47.822;7.564;2022-08-14T07:01:09;19.80;90.40
4647;DHT22;2336;47.822;7.564;2022-08-14T07:03:56;19.90;90.00
4647;DHT22;2336;47.822;7.564;2022-08-14T07:06:40;19.90;90.00
4647;DHT22;2336;47.822;7.564;2022-08-14T07:09:08;20.00;90.00
4647;DHT22;2336;47.822;7.564;2022-08-14T07:11:35;20.10;89.70
4647;DHT22;2336;47.822;7.564;2022-08-14T07:14:02;20.20;89.60
4647;DHT22;2336;47.822;7.564;2022-08-14T07:16:29;20.20;89.60
4647;DHT22;2336;47.822;7.564;2022-08-14T07:18:58;20.30;89.40
4647;DHT22;2336;47.822;7.564;2022-08-14T07:21:24;20.40;87.20
4647;DHT22;2336;47.822;7.564;2022-08-14T07:23:51;20.40;88.10
4647;DHT22;2336;47.822;7.564;2022-08-14T07:26:18;20.50;88.00
4647;DHT22;2336;47.822;7.564;2022-08-14T07:28:44;20.60;87.20
4647;DHT22;2336;47.822;7.564;2022-08-14T07:31:11;20.60;86.40
4647;DHT22;2336;47.822;7.564;2022-08-14T07:33:41;20.70;86.60
4647;DHT22;2336;47.822;7.564;2022-08-14T07:36:10;20.70;86.10
4647;DHT22;2336;47.822;7.564;2022-08-14T07:38:38;20.70;85.30
4647;DHT22;2336;47.822;7.564;2022-08-14T07:41:07;20.80;85.50
4647;DHT22;2336;47.822;7.564;2022-08-14T07:43:34;20.90;85.60
4647;DHT22;2336;47.822;7.564;2022-08-14T07:46:02;21.00;85.00
4647;DHT22;2336;47.822;7.564;2022-08-14T07:48:29;21.10;84.30
4647;DHT22;2336;47.822;7.564;2022-08-14T07:50:56;21.10;84.10
4647;DHT22;2336;47.822;7.564;2022-08-14T07:53:25;21.20;85.50
4647;DHT22;2336;47.822;7.564;2022-08-14T07:55:51;21.20;85.80
4647;DHT22;2336;47.822;7.564;2022-08-14T07:58:18;21.20;83.30
4647;DHT22;2336;47.822;7.564;2022-08-14T08:00:45;21.30;83.70
4647;DHT22;2336;47.822;7.564;2022-08-14T08:03:12;21.40;83.50
4647;DHT22;2336;47.822;7.564;2022-08-14T08:05:40;21.50;83.30
4647;DHT22;2336;47.822;7.564;2022-08-14T08:08:07;21.60;84.00
4647;DHT22;2336;47.822;7.564;2022-08-14T08:10:35;21.70;84.40
4647;DHT22;2336;47.822;7.564;2022-08-14T08:13:07;21.80;83.70
4647;DHT22;2336;47.822;7.564;2022-08-14T08:15:37;22.00;83.40
4647;DHT22;2336;47.822;7.564;2022-08-14T08:18:07;22.20;83.10
4647;DHT22;2336;47.822;7.564;2022-08-14T08:20:36;22.20;83.40
4647;DHT22;2336;47.822;7.564;2022-08-14T08:23:04;22.40;83.10
4647;DHT22;2336;47.822;7.564;2022-08-14T08:25:32;22.40;82.50
4647;DHT22;2336;47.822;7.564;2022-08-14T08:28:03;22.50;82.30
4647;DHT22;2336;47.822;7.564;2022-08-14T08:30:32;22.60;81.60
4647;DHT22;2336;47.822;7.564;2022-08-14T08:33:00;22.80;80.90
4647;DHT22;2336;47.822;7.564;2022-08-14T08:35:29;22.90;80.40
4647;DHT22;2336;47.822;7.564;2022-08-14T08:38:01;23.10;79.40
4647;DHT22;2336;47.822;7.564;2022-08-14T08:40:30;23.20;79.30
4647;DHT22;2336;47.822;7.564;2022-08-14T08:43:02;23.30;80.00
4647;DHT22;2336;47.822;7.564;2022-08-14T08:45:28;23.30;78.00
4647;DHT22;2336;47.822;7.564;2022-08-14T08:47:55;23.50;78.00
4647;DHT22;2336;47.822;7.564;2022-08-14T08:50:24;23.70;77.20
4647;DHT22;2336;47.822;7.564;2022-08-14T08:52:55;23.80;75.70
4647;DHT22;2336;47.822;7.564;2022-08-14T08:55:24;23.90;74.80
4647;DHT22;2336;47.822;7.564;2022-08-14T08:57:55;23.90;74.70
4647;DHT22;2336;47.822;7.564;2022-08-14T09:00:25;23.90;74.30
4647;DHT22;2336;47.822;7.564;2022-08-14T09:02:56;24.00;73.60
4647;DHT22;2336;47.822;7.564;2022-08-14T09:05:24;24.10;73.30
4647;DHT22;2336;47.822;7.564;2022-08-14T09:07:51;24.30;73.00
4647;DHT22;2336;47.822;7.564;2022-08-14T09:10:18;24.40;72.80
4647;DHT22;2336;47.822;7.564;2022-08-14T09:12:45;24.60;72.20
4647;DHT22;2336;47.822;7.564;2022-08-14T09:15:12;24.70;71.20
4647;DHT22;2336;47.822;7.564;2022-08-14T09:17:42;24.80;71.70
4647;DHT22;2336;47.822;7.564;2022-08-14T09:20:10;25.00;72.30
4647;DHT22;2336;47.822;7.564;2022-08-14T09:22:38;25.10;70.80
4647;DHT22;2336;47.822;7.564;2022-08-14T09:25:06;25.20;71.00
4647;DHT22;2336;47.822;7.564;2022-08-14T09:27:33;25.20;69.90
4647;DHT22;2336;47.822;7.564;2022-08-14T09:30:00;25.10;69.20
4647;DHT22;2336;47.822;7.564;2022-08-14T09:32:35;25.00;69.10
4647;DHT22;2336;47.822;7.564;2022-08-14T09:35:13;25.10;68.50
4647;DHT22;2336;47.822;7.564;2022-08-14T09:37:48;25.30;68.30
4647;DHT22;2336;47.822;7.564;2022-08-14T09:40:29;25.50;67.50
4647;DHT22;2336;47.822;7.564;2022-08-14T09:43:13;25.50;67.30
4647;DHT22;2336;47.822;7.564;2022-08-14T09:45:45;25.60;66.30
4647;DHT22;2336;47.822;7.564;2022-08-14T09:48:14;25.60;67.60
4647;DHT22;2336;47.822;7.564;2022-08-14T09:50:47;25.60;67.50
4647;DHT22;2336;47.822;7.564;2022-08-14T09:53:16;25.80;66.80
4647;DHT22;2336;47.822;7.564;2022-08-14T09:55:44;25.90;66.40
4647;DHT22;2336;47.822;7.564;2022-08-14T09:58:13;26.00;67.10
4647;DHT22;2336;47.822;7.564;2022-08-14T10:00:45;26.10;63.90
4647;DHT22;2336;47.822;7.564;2022-08-14T10:03:24;26.10;65.70
4647;DHT22;2336;47.822;7.564;2022-08-14T10:06:06;26.40;66.00
4647;DHT22;2336;47.822;7.564;2022-08-14T10:08:42;26.50;65.90
4647;DHT22;2336;47.822;7.564;2022-08-14T10:11:13;26.70;64.90
4647;DHT22;2336;47.822;7.564;2022-08-14T10:13:42;26.80;64.80
4647;DHT22;2336;47.822;7.564;2022-08-14T10:16:09;27.10;65.70
4647;DHT22;2336;47.822;7.564;2022-08-14T10:18:36;27.30;64.10
4647;DHT22;2336;47.822;7.564;2022-08-14T10:21:08;27.30;64.10
4647;DHT22;2336;47.822;7.564;2022-08-14T10:23:40;27.50;64.10
4647;DHT22;2336;47.822;7.564;2022-08-14T10:26:08;27.70;64.60
4647;DHT22;2336;47.822;7.564;2022-08-14T10:28:40;27.70;65.10
4647;DHT22;2336;47.822;7.564;2022-08-14T10:31:22;27.90;65.00
4647;DHT22;2336;47.822;7.564;2022-08-14T10:34:00;28.20;65.50
4647;DHT22;2336;47.822;7.564;2022-08-14T10:36:31;28.30;64.30
4647;DHT22;2336;47.822;7.564;2022-08-14T10:39:00;28.40;64.10
4647;DHT22;2336;47.822;7.564;2022-08-14T10:41:38;28.60;64.00
4647;DHT22;2336;47.822;7.564;2022-08-14T10:44:09;28.70;65.00
4647;DHT22;2336;47.822;7.564;2022-08-14T10:46:41;29.00;66.10
4647;DHT22;2336;47.822;7.564;2022-08-14T10:49:17;28.90;67.80
4647;DHT22;2336;47.822;7.564;2022-08-14T10:51:59;28.80;68.50
4647;DHT22;2336;47.822;7.564;2022-08-14T10:54:33;28.80;70.60
4647;DHT22;2336;47.822;7.564;2022-08-14T10:57:14;29.00;72.30
4647;DHT22;2336;47.822;7.564;2022-08-14T10:59:43;29.00;71.40
4647;DHT22;2336;47.822;7.564;2022-08-14T11:02:21;29.10;72.10
4647;DHT22;2336;47.822;7.564;2022-08-14T11:05:14;29.30;72.80
4647;DHT22;2336;47.822;7.564;2022-08-14T11:07:56;29.50;73.20
4647;DHT22;2336;47.822;7.564;2022-08-14T11:10:26;29.50;72.70
4647;DHT22;2336;47.822;7.564;2022-08-14T11:13:03;29.50;73.00
4647;DHT22;2336;47.822;7.564;2022-08-14T11:15:31;29.50;73.20
4647;DHT22;2336;47.822;7.564;2022-08-14T11:17:58;29.60;74.10
4647;DHT22;2336;47.822;7.564;2022-08-14T11:20:28;29.60;74.20
4647;DHT22;2336;47.822;7.564;2022-08-14T11:22:58;29.60;73.90
4647;DHT22;2336;47.822;7.564;2022-08-14T11:25:27;29.60;73.70
4647;DHT22;2336;47.822;7.564;2022-08-14T11:27:57;29.60;72.60
4647;DHT22;2336;47.822;7.564;2022-08-14T11:30:26;29.20;72.50
4647;DHT22;2336;47.822;7.564;2022-08-14T11:32:53;29.10;73.30
4647;DHT22;2336;47.822;7.564;2022-08-14T11:35:23;28.90;73.10
4647;DHT22;2336;47.822;7.564;2022-08-14T11:37:52;29.20;73.30
4647;DHT22;2336;47.822;7.564;2022-08-14T11:40:22;29.20;73.50
4647;DHT22;2336;47.822;7.564;2022-08-14T11:42:50;29.30;73.20
4647;DHT22;2336;47.822;7.564;2022-08-14T11:45:21;29.20;73.40
4647;DHT22;2336;47.822;7.564;2022-08-14T11:47:50;29.20;73.10
4647;DHT22;2336;47.822;7.564;2022-08-14T11:50:19;29.10;72.90
4647;DHT22;2336;47.822;7.564;2022-08-14T11:52:48;28.90;72.60
4647;DHT22;2336;47.822;7.564;2022-08-14T11:55:19;29.00;73.50
4647;DHT22;2336;47.822;7.564;2022-08-14T11:58:03;29.10;73.30
4647;DHT22;2336;47.822;7.564;2022-08-14T12:00:30;28.80;73.40
4647;DHT22;2336;47.822;7.564;2022-08-14T12:02:59;28.60;74.30
4647;DHT22;2336;47.822;7.564;2022-08-14T12:05:31;28.50;73.90
4647;DHT22;2336;47.822;7.564;2022-08-14T12:07:59;28.70;74.00
4647;DHT22;2336;47.822;7.564;2022-08-14T12:10:28;29.00;73.40
4647;DHT22;2336;47.822;7.564;2022-08-14T12:12:56;29.10;72.60
4647;DHT22;2336;47.822;7.564;2022-08-14T12:15:30;29.30;72.50
4647;DHT22;2336;47.822;7.564;2022-08-14T12:17:57;29.60;70.60
4647;DHT22;2336;47.822;7.564;2022-08-14T12:20:29;29.90;70.00
4647;DHT22;2336;47.822;7.564;2022-08-14T12:22:57;29.90;67.60
4647;DHT22;2336;47.822;7.564;2022-08-14T12:25:26;29.70;67.00
4647;DHT22;2336;47.822;7.564;2022-08-14T12:27:55;29.60;66.00
4647;DHT22;2336;47.822;7.564;2022-08-14T12:30:27;29.50;63.40
4647;DHT22;2336;47.822;7.564;2022-08-14T12:32:55;29.40;60.60
4647;DHT22;2336;47.822;7.564;2022-08-14T12:35:21;29.10;59.10
4647;DHT22;2336;47.822;7.564;2022-08-14T12:37:50;28.80;59.30
4647;DHT22;2336;47.822;7.564;2022-08-14T12:40:18;28.60;58.60
4647;DHT22;2336;47.822;7.564;2022-08-14T12:42:50;28.60;58.30
4647;DHT22;2336;47.822;7.564;2022-08-14T12:45:29;28.50;59.00
4647;DHT22;2336;47.822;7.564;2022-08-14T12:47:59;28.60;59.20
4647;DHT22;2336;47.822;7.564;2022-08-14T12:50:34;28.50;59.50
4647;DHT22;2336;47.822;7.564;2022-08-14T12:53:02;28.70;58.90
4647;DHT22;2336;47.822;7.564;2022-08-14T12:55:29;28.90;59.50
4647;DHT22;2336;47.822;7.564;2022-08-14T12:58:02;29.10;59.70
4647;DHT22;2336;47.822;7.564;2022-08-14T13:00:31;29.10;59.80
4647;DHT22;2336;47.822;7.564;2022-08-14T13:02:58;28.90;60.30
4647;DHT22;2336;47.822;7.564;2022-08-14T13:05:27;28.50;61.80
4647;DHT22;2336;47.822;7.564;2022-08-14T13:07:56;28.30;63.30
4647;DHT22;2336;47.822;7.564;2022-08-14T13:10:24;28.10;63.80
4647;DHT22;2336;47.822;7.564;2022-08-14T13:12:56;28.00;64.30
4647;DHT22;2336;47.822;7.564;2022-08-14T13:15:25;27.80;65.40
4647;DHT22;2336;47.822;7.564;2022-08-14T13:17:54;27.70;65.30
4647;DHT22;2336;47.822;7.564;2022-08-14T13:20:22;27.70;66.40
4647;DHT22;2336;47.822;7.564;2022-08-14T13:22:49;27.60;67.10
4647;DHT22;2336;47.822;7.564;2022-08-14T13:25:18;27.60;67.70
4647;DHT22;2336;47.822;7.564;2022-08-14T13:27:46;27.70;67.20
4647;DHT22;2336;47.822;7.564;2022-08-14T13:30:14;27.80;67.30
4647;DHT22;2336;47.822;7.564;2022-08-14T13:32:43;27.90;67.00
4647;DHT22;2336;47.822;7.564;2022-08-14T13:35:12;27.90;67.10
4647;DHT22;2336;47.822;7.564;2022-08-14T13:37:40;27.80;67.40
4647;DHT22;2336;47.822;7.564;2022-08-14T13:40:10;27.80;67.90
4647;DHT22;2336;47.822;7.564;2022-08-14T13:42:41;27.70;68.00
4647;DHT22;2336;47.822;7.564;2022-08-14T13:45:09;27.60;68.60
4647;DHT22;2336;47.822;7.564;2022-08-14T13:47:36;27.70;68.30
4647;DHT22;2336;47.822;7.564;2022-08-14T13:50:07;27.60;68.60
4647;DHT22;2336;47.822;7.564;2022-08-14T13:52:41;27.50;69.60
4647;DHT22;2336;47.822;7.564;2022-08-14T13:55:08;27.40;69.50
4647;DHT22;2336;47.822;7.564;2022-08-14T13:57:39;27.40;69.80
4647;DHT22;2336;47.822;7.564;2022-08-14T14:00:08;27.40;70.30
4647;DHT22;2336;47.822;7.564;2022-08-14T14:02:37;27.50;70.70
4647;DHT22;2336;47.822;7.564;2022-08-14T14:05:06;27.50;70.50
4647;DHT22;2336;47.822;7.564;2022-08-14T14:07:35;27.50;69.90
4647;DHT22;2336;47.822;7.564;2022-08-14T14:10:04;27.60;69.10
4647;DHT22;2336;47.822;7.564;2022-08-14T14:12:32;27.60;69.10
4647;DHT22;2336;47.822;7.564;2022-08-14T14:15:00;27.50;69.50
4647;DHT22;2336;47.822;7.564;2022-08-14T14:17:28;27.50;70.00
4647;DHT22;2336;47.822;7.564;2022-08-14T14:19:57;27.50;69.80
4647;DHT22;2336;47.822;7.564;2022-08-14T14:22:26;27.50;70.40
4647;DHT22;2336;47.822;7.564;2022-08-14T14:24:53;27.40;69.80
4647;DHT22;2336;47.822;7.564;2022-08-14T14:27:22;27.40;70.10
4647;DHT22;2336;47.822;7.564;2022-08-14T14:29:53;27.50;70.30
4647;DHT22;2336;47.822;7.564;2022-08-14T14:32:26;27.50;70.80
4647;DHT22;2336;47.822;7.564;2022-08-14T14:34:53;27.60;71.00
4647;DHT22;2336;47.822;7.564;2022-08-14T14:37:20;27.60;70.60
4647;DHT22;2336;47.822;7.564;2022-08-14T14:39:50;27.60;70.80
4647;DHT22;2336;47.822;7.564;2022-08-14T14:42:18;27.70;70.50
4647;DHT22;2336;47.822;7.564;2022-08-14T14:44:45;27.70;70.10
4647;DHT22;2336;47.822;7.564;2022-08-14T14:47:18;27.60;70.80
4647;DHT22;2336;47.822;7.564;2022-08-14T14:49:47;27.60;71.10
4647;DHT22;2336;47.822;7.564;2022-08-14T14:52:14;27.50;71.40
4647;DHT22;2336;47.822;7.564;2022-08-14T14:54:42;27.50;71.30
4647;DHT22;2336;47.822;7.564;2022-08-14T14:57:12;27.60;71.60
4647;DHT22;2336;47.822;7.564;2022-08-14T14:59:39;27.50;72.20
4647;DHT22;2336;47.822;7.564;2022-08-14T15:02:06;27.30;71.20
4647;DHT22;2336;47.822;7.564;2022-08-14T15:04:34;27.30;70.30
4647;DHT22;2336;47.822;7.564;2022-08-14T15:07:02;27.20;70.90
4647;DHT22;2336;47.822;7.564;2022-08-14T15:09:29;27.10;72.50
4647;DHT22;2336;47.822;7.564;2022-08-14T15:11:56;27.00;73.10
4647;DHT22;2336;47.822;7.564;2022-08-14T15:14:24;27.00;72.90
4647;DHT22;2336;47.822;7.564;2022-08-14T15:16:51;26.90;73.00
4647;DHT22;2336;47.822;7.564;2022-08-14T15:19:17;26.90;74.10
4647;DHT22;2336;47.822;7.564;2022-08-14T15:21:45;26.80;74.30
4647;DHT22;2336;47.822;7.564;2022-08-14T15:24:12;26.80;74.20
4647;DHT22;2336;47.822;7.564;2022-08-14T15:26:40;26.60;74.30
4647;DHT22;2336;47.822;7.564;2022-08-14T15:29:08;26.60;74.70
4647;DHT22;2336;47.822;7.564;2022-08-14T15:31:40;26.50;75.20
4647;DHT22;2336;47.822;7.564;2022-08-14T15:34:08;26.50;75.50
4647;DHT22;2336;47.822;7.564;2022-08-14T15:36:41;26.50;76.70
4647;DHT22;2336;47.822;7.564;2022-08-14T15:39:10;26.40;76.50
4647;DHT22;2336;47.822;7.564;2022-08-14T15:41:36;26.40;77.00
4647;DHT22;2336;47.822;7.564;2022-08-14T15:44:03;26.30;77.50
4647;DHT22;2336;47.822;7.564;2022-08-14T15:46:30;26.20;77.90
4647;DHT22;2336;47.822;7.564;2022-08-14T15:48:59;26.30;78.10
4647;DHT22;2336;47.822;7.564;2022-08-14T15:51:26;26.20;78.40
4647;DHT22;2336;47.822;7.564;2022-08-14T15:53:55;26.20;78.80
4647;DHT22;2336;47.822;7.564;2022-08-14T15:56:22;26.10;79.30
4647;DHT22;2336;47.822;7.564;2022-08-14T15:58:49;26.10;79.70
4647;DHT22;2336;47.822;7.564;2022-08-14T16:01:15;26.10;79.90
4647;DHT22;2336;47.822;7.564;2022-08-14T16:03:44;26.00;79.80
4647;DHT22;2336;47.822;7.564;2022-08-14T16:06:14;26.00;79.90
4647;DHT22;2336;47.822;7.564;2022-08-14T16:08:41;25.90;80.00
4647;DHT22;2336;47.822;7.564;2022-08-14T16:11:09;25.90;80.20
4647;DHT22;2336;47.822;7.564;2022-08-14T16:13:37;25.90;80.20
4647;DHT22;2336;47.822;7.564;2022-08-14T16:16:09;25.90;80.60
4647;DHT22;2336;47.822;7.564;2022-08-14T16:18:39;25.90;80.70